Airfield :
LOGIN :

Register | Disclaimer

   EN    FR    IT 

 










Legend :    VFR   Marginal VFR   IFR   Intensive IFR   Very Intensive IFR
Visi :
Ceiling :
>= 8 km
>= 3000ft
5 to 8 km
1000 to 3000 ft
1500m to 5 km
500 to 1000 ft
800 to 1500m
200 to 500 ft
< 800m
< 200 ft
Symbols :   Thunderstorms  Fog  Heavy snow  Heavy precipitations  Wind > 20 kt
SIGMETs :     Misc.  Thunderstorms  Icing  Turbulence  Mountain Waves  Volcanic Ashes







- Airport Elevation : 309 ft
- IATA code : FNI
- Download approach charts


LFTW - Nîmes Garons

CURRENT METAR :
  • 181200Z AUTO 01018KT CAVOK 13/02 Q1019 TEMPO 02015G25KT

EXPIRED METARs :
  • 181130Z AUTO 01017KT CAVOK 13/03 Q1019 TEMPO 02015G25KT
  • 181100Z AUTO 02018KT CAVOK 12/03 Q1020 TEMPO 02015G25KT
  • 181030Z AUTO 01016KT CAVOK 12/03 Q1020 TEMPO 02015G25KT
  • 181000Z AUTO 02016KT 9999 FEW033 11/03 Q1020 TEMPO 02015G25KT
  • 180930Z AUTO 02015KT 350V050 CAVOK 11/03 Q1020 TEMPO 02015G25KT

TAF TAF LFTW
Valid from the 18 at 09:00 until the 19 at 09:00 UTC


180800Z 1809/1909 01016KT CAVOK
TEMPO 1809/1818 02015G25KT
BECMG 1904/1906 32006KT
No reported NOTAMs for that airfield.



MET'MAP, your aeronautical weather chart ! - Copyright ORBIFLY December 2007 - Disclaimer

ORBIFLY MET'MAP TEAM :

Programming & Development : Alexandra Zaïnal
Concept & Development : Baudouin d'Aumeries
Co-Development & Prog : Marc-Olivier Méhu
Technical & hardware support : Manuel Goepfert

Contact : metmap@orbifly.com




SOURCES & CREDITS :

   NOAA